Midway, Minnesota
Current Conditions -  °F | °C
As of 2:53 PM on Tuesday 21 Oct 2014 (Local Time) from KPKD Reporting Station
Clear Clear  
Wind Chill: 57°   Ceiling: Unl
Heat Index: 57°   Visibility: 10mi
Dew Point: 38°   Wind: 22mph
Humidity: 49%   Direction: 140°SE
Pressure: 30.05"   Gusts: NA
Location:  46.7591°N, 94.9748°W
Report Text: KPKD 211953Z AUTO 14019KT 10SM CLR 14/03 A3005 RMK AO2 SLP184 T01390033 TSNO
Loading
Personal Weather Stations






























Interactive Weather Map
Tropical Storm Tracking
New forecast layout! Learn more

10-Day Weather Forecast

Advertisements
Track Severe Weather on mobile